sensor_id;sensor_type;location;lat;lon;timestamp;pressure;altitude;pressure_sealevel;temperature;humidity
62849;BME280;48941;49.516;8.286;2023-07-13T00:00:56;100337.69;;;20.76;49.02
62849;BME280;48941;49.516;8.286;2023-07-13T00:03:23;100345.56;;;20.71;48.97
62849;BME280;48941;49.516;8.286;2023-07-13T00:05:57;100353.03;;;20.69;48.91
62849;BME280;48941;49.516;8.286;2023-07-13T00:08:30;100352.41;;;20.67;49.53
62849;BME280;48941;49.516;8.286;2023-07-13T00:10:59;100353.66;;;20.56;49.02
62849;BME280;48941;49.516;8.286;2023-07-13T00:13:27;100345.75;;;20.55;49.39
62849;BME280;48941;49.516;8.286;2023-07-13T00:15:57;100352.19;;;20.54;49.22
62849;BME280;48941;49.516;8.286;2023-07-13T00:18:25;100351.53;;;20.52;49.34
62849;BME280;48941;49.516;8.286;2023-07-13T00:20:56;100366.28;;;20.49;49.79
62849;BME280;48941;49.516;8.286;2023-07-13T00:23:33;100376.25;;;20.48;49.06
62849;BME280;48941;49.516;8.286;2023-07-13T00:26:01;100374.31;;;20.42;49.38
62849;BME280;48941;49.516;8.286;2023-07-13T00:28:30;100367.41;;;20.40;49.67
62849;BME280;48941;49.516;8.286;2023-07-13T00:30:57;100371.53;;;20.36;49.79
62849;BME280;48941;49.516;8.286;2023-07-13T00:33:26;100370.88;;;20.34;50.02
62849;BME280;48941;49.516;8.286;2023-07-13T00:35:55;100372.28;;;20.29;49.83
62849;BME280;48941;49.516;8.286;2023-07-13T00:38:24;100377.84;;;20.28;50.22
62849;BME280;48941;49.516;8.286;2023-07-13T00:40:53;100376.19;;;20.27;50.18
62849;BME280;48941;49.516;8.286;2023-07-13T00:43:22;100374.84;;;20.23;50.11
62849;BME280;48941;49.516;8.286;2023-07-13T00:46:22;100370.69;;;20.20;50.13
62849;BME280;48941;49.516;8.286;2023-07-13T00:48:51;100379.19;;;20.17;50.36
62849;BME280;48941;49.516;8.286;2023-07-13T00:51:28;100371.81;;;20.11;50.42
62849;BME280;48941;49.516;8.286;2023-07-13T00:54:00;100379.44;;;20.07;50.39
62849;BME280;48941;49.516;8.286;2023-07-13T00:56:33;100398.25;;;20.01;50.30
62849;BME280;48941;49.516;8.286;2023-07-13T00:59:02;100394.06;;;19.98;50.54
62849;BME280;48941;49.516;8.286;2023-07-13T01:01:31;100382.03;;;20.01;50.23
62849;BME280;48941;49.516;8.286;2023-07-13T01:03:59;100379.63;;;20.06;50.06
62849;BME280;48941;49.516;8.286;2023-07-13T01:06:27;100372.34;;;20.06;49.62
62849;BME280;48941;49.516;8.286;2023-07-13T01:08:56;100388.28;;;20.01;50.05
62849;BME280;48941;49.516;8.286;2023-07-13T01:11:26;100386.59;;;20.00;50.47
62849;BME280;48941;49.516;8.286;2023-07-13T01:13:55;100389.47;;;19.99;50.50
62849;BME280;48941;49.516;8.286;2023-07-13T01:16:25;100387.66;;;19.99;50.53
62849;BME280;48941;49.516;8.286;2023-07-13T01:18:54;100391.09;;;19.93;50.83
62849;BME280;48941;49.516;8.286;2023-07-13T01:21:26;100382.69;;;19.88;51.09
62849;BME280;48941;49.516;8.286;2023-07-13T01:23:55;100391.13;;;19.85;51.44
62849;BME280;48941;49.516;8.286;2023-07-13T01:26:23;100383.59;;;19.80;51.25
62849;BME280;48941;49.516;8.286;2023-07-13T01:28:50;100387.22;;;19.73;51.48
62849;BME280;48941;49.516;8.286;2023-07-13T01:31:18;100383.81;;;19.70;51.62
62849;BME280;48941;49.516;8.286;2023-07-13T01:33:46;100382.22;;;19.61;51.64
62849;BME280;48941;49.516;8.286;2023-07-13T01:36:14;100377.56;;;19.55;52.21
62849;BME280;48941;49.516;8.286;2023-07-13T01:38:43;100385.69;;;19.47;52.41
62849;BME280;48941;49.516;8.286;2023-07-13T01:41:11;100377.59;;;19.47;52.63
62849;BME280;48941;49.516;8.286;2023-07-13T01:43:39;100380.00;;;19.42;53.02
62849;BME280;48941;49.516;8.286;2023-07-13T01:46:07;100379.72;;;19.37;53.54
62849;BME280;48941;49.516;8.286;2023-07-13T01:48:49;100371.97;;;19.34;53.42
62849;BME280;48941;49.516;8.286;2023-07-13T01:51:18;100370.19;;;19.26;53.70
62849;BME280;48941;49.516;8.286;2023-07-13T01:53:47;100372.56;;;19.21;53.95
62849;BME280;48941;49.516;8.286;2023-07-13T01:56:16;100378.69;;;19.15;54.12
62849;BME280;48941;49.516;8.286;2023-07-13T01:58:44;100385.63;;;19.09;54.38
62849;BME280;48941;49.516;8.286;2023-07-13T02:01:12;100390.09;;;19.02;55.03
62849;BME280;48941;49.516;8.286;2023-07-13T02:03:40;100388.28;;;18.94;54.82
62849;BME280;48941;49.516;8.286;2023-07-13T02:06:08;100398.56;;;18.90;55.31
62849;BME280;48941;49.516;8.286;2023-07-13T02:08:37;100399.28;;;18.84;55.53
62849;BME280;48941;49.516;8.286;2023-07-13T02:11:06;100404.69;;;18.84;55.37
62849;BME280;48941;49.516;8.286;2023-07-13T02:13:34;100397.97;;;18.80;55.69
62849;BME280;48941;49.516;8.286;2023-07-13T02:16:02;100407.22;;;18.78;55.67
62849;BME280;48941;49.516;8.286;2023-07-13T02:18:30;100407.09;;;18.79;55.57
62849;BME280;48941;49.516;8.286;2023-07-13T02:20:57;100395.75;;;18.76;55.83
62849;BME280;48941;49.516;8.286;2023-07-13T02:23:25;100401.34;;;18.74;55.67
62849;BME280;48941;49.516;8.286;2023-07-13T02:25:55;100400.50;;;18.74;55.95
62849;BME280;48941;49.516;8.286;2023-07-13T02:28:24;100408.75;;;18.72;56.16
62849;BME280;48941;49.516;8.286;2023-07-13T02:30:52;100420.56;;;18.71;56.28
62849;BME280;48941;49.516;8.286;2023-07-13T02:33:20;100405.56;;;18.68;56.36
62849;BME280;48941;49.516;8.286;2023-07-13T02:35:47;100419.59;;;18.64;56.33
62849;BME280;48941;49.516;8.286;2023-07-13T02:38:15;100412.88;;;18.60;56.40
62849;BME280;48941;49.516;8.286;2023-07-13T02:40:43;100412.88;;;18.60;56.60
62849;BME280;48941;49.516;8.286;2023-07-13T02:43:11;100413.38;;;18.55;56.71
62849;BME280;48941;49.516;8.286;2023-07-13T02:45:44;100404.81;;;18.51;56.96
62849;BME280;48941;49.516;8.286;2023-07-13T02:48:13;100405.50;;;18.45;57.40
62849;BME280;48941;49.516;8.286;2023-07-13T02:50:41;100404.19;;;18.41;57.48
62849;BME280;48941;49.516;8.286;2023-07-13T02:53:09;100402.34;;;18.34;57.75
62849;BME280;48941;49.516;8.286;2023-07-13T02:55:37;100398.31;;;18.29;57.74
62849;BME280;48941;49.516;8.286;2023-07-13T02:58:05;100402.38;;;18.25;57.87
62849;BME280;48941;49.516;8.286;2023-07-13T03:00:32;100390.25;;;18.21;58.44
62849;BME280;48941;49.516;8.286;2023-07-13T03:03:02;100391.25;;;18.20;58.67
62849;BME280;48941;49.516;8.286;2023-07-13T03:05:29;100393.28;;;18.18;58.67
62849;BME280;48941;49.516;8.286;2023-07-13T03:07:57;100395.97;;;18.18;58.99
62849;BME280;48941;49.516;8.286;2023-07-13T03:10:25;100404.88;;;18.19;58.96
62849;BME280;48941;49.516;8.286;2023-07-13T03:12:53;100395.47;;;18.15;59.09
62849;BME280;48941;49.516;8.286;2023-07-13T03:15:20;100397.66;;;18.11;59.46
62849;BME280;48941;49.516;8.286;2023-07-13T03:17:48;100394.13;;;18.10;59.56
62849;BME280;48941;49.516;8.286;2023-07-13T03:20:17;100400.56;;;18.09;59.52
62849;BME280;48941;49.516;8.286;2023-07-13T03:22:45;100400.72;;;18.08;59.67
62849;BME280;48941;49.516;8.286;2023-07-13T03:25:14;100402.56;;;17.99;59.87
62849;BME280;48941;49.516;8.286;2023-07-13T03:27:41;100414.38;;;17.98;59.72
62849;BME280;48941;49.516;8.286;2023-07-13T03:30:10;100432.22;;;17.99;60.29
62849;BME280;48941;49.516;8.286;2023-07-13T03:32:38;100420.94;;;17.96;60.03
62849;BME280;48941;49.516;8.286;2023-07-13T03:35:06;100425.66;;;17.94;60.17
62849;BME280;48941;49.516;8.286;2023-07-13T03:37:36;100428.69;;;17.90;60.43
62849;BME280;48941;49.516;8.286;2023-07-13T03:40:10;100425.16;;;17.90;60.95
62849;BME280;48941;49.516;8.286;2023-07-13T03:42:38;100424.13;;;17.91;60.97
62849;BME280;48941;49.516;8.286;2023-07-13T03:45:07;100426.66;;;17.92;60.89
62849;BME280;48941;49.516;8.286;2023-07-13T03:47:36;100423.97;;;17.92;60.58
62849;BME280;48941;49.516;8.286;2023-07-13T03:50:05;100423.47;;;17.89;60.59
62849;BME280;48941;49.516;8.286;2023-07-13T03:52:32;100432.06;;;17.92;61.18
62849;BME280;48941;49.516;8.286;2023-07-13T03:55:02;100433.25;;;17.90;61.46
62849;BME280;48941;49.516;8.286;2023-07-13T03:57:30;100433.56;;;17.87;61.65
62849;BME280;48941;49.516;8.286;2023-07-13T03:59:57;100444.69;;;17.84;62.21
62849;BME280;48941;49.516;8.286;2023-07-13T04:02:25;100435.56;;;17.77;62.45
62849;BME280;48941;49.516;8.286;2023-07-13T04:04:53;100440.44;;;17.73;63.45
62849;BME280;48941;49.516;8.286;2023-07-13T04:07:21;100438.78;;;17.64;63.89
62849;BME280;48941;49.516;8.286;2023-07-13T04:09:48;100440.63;;;17.63;63.99
62849;BME280;48941;49.516;8.286;2023-07-13T04:12:17;100440.97;;;17.60;63.95
62849;BME280;48941;49.516;8.286;2023-07-13T04:14:45;100439.44;;;17.58;64.22
62849;BME280;48941;49.516;8.286;2023-07-13T04:17:13;100438.25;;;17.52;64.36
62849;BME280;48941;49.516;8.286;2023-07-13T04:19:41;100441.47;;;17.56;63.63
62849;BME280;48941;49.516;8.286;2023-07-13T04:22:08;100439.25;;;17.59;63.38
62849;BME280;48941;49.516;8.286;2023-07-13T04:24:36;100439.09;;;17.61;63.79
62849;BME280;48941;49.516;8.286;2023-07-13T04:27:05;100450.91;;;17.68;63.40
62849;BME280;48941;49.516;8.286;2023-07-13T04:29:34;100452.56;;;17.69;63.57
62849;BME280;48941;49.516;8.286;2023-07-13T04:32:02;100453.09;;;17.72;63.29
62849;BME280;48941;49.516;8.286;2023-07-13T04:34:30;100460.84;;;17.76;63.58
62849;BME280;48941;49.516;8.286;2023-07-13T04:36:58;100462.50;;;17.77;63.50
62849;BME280;48941;49.516;8.286;2023-07-13T04:39:25;100456.97;;;17.78;63.26
62849;BME280;48941;49.516;8.286;2023-07-13T04:41:53;100454.09;;;17.80;63.74
62849;BME280;48941;49.516;8.286;2023-07-13T04:44:22;100456.16;;;17.86;63.54
62849;BME280;48941;49.516;8.286;2023-07-13T04:46:51;100462.38;;;17.86;63.55
62849;BME280;48941;49.516;8.286;2023-07-13T04:49:19;100465.22;;;17.93;63.78
62849;BME280;48941;49.516;8.286;2023-07-13T04:51:47;100465.72;;;17.97;63.73
62849;BME280;48941;49.516;8.286;2023-07-13T04:54:15;100466.09;;;17.94;64.32
62849;BME280;48941;49.516;8.286;2023-07-13T04:56:43;100466.56;;;17.97;65.18
62849;BME280;48941;49.516;8.286;2023-07-13T04:59:11;100468.09;;;18.00;64.80
62849;BME280;48941;49.516;8.286;2023-07-13T05:01:38;100475.66;;;18.04;65.30
62849;BME280;48941;49.516;8.286;2023-07-13T05:04:08;100473.66;;;18.06;65.33
62849;BME280;48941;49.516;8.286;2023-07-13T05:06:36;100475.66;;;18.13;65.74
62849;BME280;48941;49.516;8.286;2023-07-13T05:09:03;100474.66;;;18.22;65.52
62849;BME280;48941;49.516;8.286;2023-07-13T05:11:32;100462.34;;;18.27;66.04
62849;BME280;48941;49.516;8.286;2023-07-13T05:14:00;100469.91;;;18.32;66.72
62849;BME280;48941;49.516;8.286;2023-07-13T05:16:28;100480.00;;;18.38;66.80
62849;BME280;48941;49.516;8.286;2023-07-13T05:18:56;100476.63;;;18.44;65.89
62849;BME280;48941;49.516;8.286;2023-07-13T05:21:25;100481.00;;;18.54;64.98
62849;BME280;48941;49.516;8.286;2023-07-13T05:23:53;100488.88;;;18.63;64.28
62849;BME280;48941;49.516;8.286;2023-07-13T05:26:20;100478.41;;;18.68;63.60
62849;BME280;48941;49.516;8.286;2023-07-13T05:28:48;100484.97;;;18.74;63.42
62849;BME280;48941;49.516;8.286;2023-07-13T05:31:16;100486.00;;;18.81;62.60
62849;BME280;48941;49.516;8.286;2023-07-13T05:33:44;100491.34;;;18.89;62.15
62849;BME280;48941;49.516;8.286;2023-07-13T05:36:12;100494.50;;;19.01;61.69
62849;BME280;48941;49.516;8.286;2023-07-13T05:38:41;100491.78;;;19.09;60.82
62849;BME280;48941;49.516;8.286;2023-07-13T05:41:09;100487.34;;;19.17;59.55
62849;BME280;48941;49.516;8.286;2023-07-13T05:43:37;100497.75;;;19.28;59.66
62849;BME280;48941;49.516;8.286;2023-07-13T05:46:05;100496.31;;;19.40;58.96
62849;BME280;48941;49.516;8.286;2023-07-13T05:48:32;100498.31;;;19.46;58.21
62849;BME280;48941;49.516;8.286;2023-07-13T05:51:01;100496.88;;;19.59;57.63
62849;BME280;48941;49.516;8.286;2023-07-13T05:53:29;100496.59;;;19.77;56.54
62849;BME280;48941;49.516;8.286;2023-07-13T05:55:58;100501.13;;;19.84;55.99
62849;BME280;48941;49.516;8.286;2023-07-13T05:58:28;100502.38;;;19.97;55.30
62849;BME280;48941;49.516;8.286;2023-07-13T06:01:01;100508.84;;;20.10;53.99
62849;BME280;48941;49.516;8.286;2023-07-13T06:03:30;100508.03;;;20.25;53.64
62849;BME280;48941;49.516;8.286;2023-07-13T06:05:57;100506.75;;;20.36;52.63
62849;BME280;48941;49.516;8.286;2023-07-13T06:08:27;100512.91;;;20.44;50.91
62849;BME280;48941;49.516;8.286;2023-07-13T06:11:03;100513.31;;;20.56;51.25
62849;BME280;48941;49.516;8.286;2023-07-13T06:13:31;100517.16;;;20.62;51.15
62849;BME280;48941;49.516;8.286;2023-07-13T06:16:00;100521.56;;;20.78;50.11
62849;BME280;48941;49.516;8.286;2023-07-13T06:18:31;100523.53;;;20.84;49.16
62849;BME280;48941;49.516;8.286;2023-07-13T06:20:59;100519.50;;;20.95;49.12
62849;BME280;48941;49.516;8.286;2023-07-13T06:23:27;100526.41;;;21.12;47.83
62849;BME280;48941;49.516;8.286;2023-07-13T06:25:54;100531.69;;;21.20;46.50
62849;BME280;48941;49.516;8.286;2023-07-13T06:28:24;100529.34;;;21.32;46.52
62849;BME280;48941;49.516;8.286;2023-07-13T06:30:52;100530.19;;;21.47;46.08
62849;BME280;48941;49.516;8.286;2023-07-13T06:33:19;100531.94;;;21.55;46.24
62849;BME280;48941;49.516;8.286;2023-07-13T06:35:47;100534.13;;;21.66;46.33
62849;BME280;48941;49.516;8.286;2023-07-13T06:38:15;100549.91;;;21.78;46.00
62849;BME280;48941;49.516;8.286;2023-07-13T06:40:43;100553.91;;;21.82;45.06
62849;BME280;48941;49.516;8.286;2023-07-13T06:43:11;100545.13;;;21.80;45.05
62849;BME280;48941;49.516;8.286;2023-07-13T06:45:43;100549.41;;;21.89;44.85
62849;BME280;48941;49.516;8.286;2023-07-13T06:48:12;100551.59;;;22.00;44.25
62849;BME280;48941;49.516;8.286;2023-07-13T06:50:41;100544.94;;;22.03;43.98
62849;BME280;48941;49.516;8.286;2023-07-13T06:53:09;100555.81;;;22.03;44.08
62849;BME280;48941;49.516;8.286;2023-07-13T06:55:37;100552.22;;;22.02;44.33
62849;BME280;48941;49.516;8.286;2023-07-13T06:58:06;100553.31;;;22.08;44.50
62849;BME280;48941;49.516;8.286;2023-07-13T07:00:34;100559.22;;;22.12;44.16
62849;BME280;48941;49.516;8.286;2023-07-13T07:03:03;100553.34;;;22.30;44.26
62849;BME280;48941;49.516;8.286;2023-07-13T07:05:31;100552.19;;;22.39;44.42
62849;BME280;48941;49.516;8.286;2023-07-13T07:07:59;100549.69;;;22.44;44.45
62849;BME280;48941;49.516;8.286;2023-07-13T07:10:29;100559.03;;;22.63;43.66
62849;BME280;48941;49.516;8.286;2023-07-13T07:12:57;100557.44;;;22.75;44.06
62849;BME280;48941;49.516;8.286;2023-07-13T07:15:25;100566.88;;;22.79;42.93
62849;BME280;48941;49.516;8.286;2023-07-13T07:17:53;100554.81;;;22.89;41.88
62849;BME280;48941;49.516;8.286;2023-07-13T07:20:23;100566.91;;;22.86;42.81
62849;BME280;48941;49.516;8.286;2023-07-13T07:22:51;100560.03;;;22.90;43.22
62849;BME280;48941;49.516;8.286;2023-07-13T07:25:19;100563.19;;;22.94;42.54
62849;BME280;48941;49.516;8.286;2023-07-13T07:27:47;100566.16;;;22.99;42.40
62849;BME280;48941;49.516;8.286;2023-07-13T07:30:17;100574.09;;;23.00;42.01
62849;BME280;48941;49.516;8.286;2023-07-13T07:32:48;100564.75;;;23.03;41.73
62849;BME280;48941;49.516;8.286;2023-07-13T07:35:19;100572.03;;;23.02;41.79
62849;BME280;48941;49.516;8.286;2023-07-13T07:37:48;100570.31;;;22.95;42.54
62849;BME280;48941;49.516;8.286;2023-07-13T07:40:17;100565.28;;;22.98;42.48
62849;BME280;48941;49.516;8.286;2023-07-13T07:42:47;100560.16;;;23.10;42.64
62849;BME280;48941;49.516;8.286;2023-07-13T07:45:15;100581.72;;;23.18;42.54
62849;BME280;48941;49.516;8.286;2023-07-13T07:47:43;100573.59;;;23.18;42.13
62849;BME280;48941;49.516;8.286;2023-07-13T07:50:11;100567.97;;;23.20;41.85
62849;BME280;48941;49.516;8.286;2023-07-13T07:52:40;100570.50;;;23.28;42.26
62849;BME280;48941;49.516;8.286;2023-07-13T07:55:09;100570.31;;;23.36;41.83
62849;BME280;48941;49.516;8.286;2023-07-13T07:57:40;100564.69;;;23.38;41.62
62849;BME280;48941;49.516;8.286;2023-07-13T08:00:11;100563.69;;;23.45;42.09
62849;BME280;48941;49.516;8.286;2023-07-13T08:02:43;100572.28;;;23.62;41.45
62849;BME280;48941;49.516;8.286;2023-07-13T08:05:14;100567.53;;;23.71;40.73
62849;BME280;48941;49.516;8.286;2023-07-13T08:07:45;100564.25;;;23.82;40.48
62849;BME280;48941;49.516;8.286;2023-07-13T08:10:14;100570.13;;;23.93;39.57
62849;BME280;48941;49.516;8.286;2023-07-13T08:12:41;100573.25;;;23.96;40.02
62849;BME280;48941;49.516;8.286;2023-07-13T08:15:29;100569.09;;;24.14;39.73
62849;BME280;48941;49.516;8.286;2023-07-13T08:17:57;100568.06;;;24.15;39.93
62849;BME280;48941;49.516;8.286;2023-07-13T08:20:25;100563.03;;;24.25;39.19
62849;BME280;48941;49.516;8.286;2023-07-13T08:22:53;100563.03;;;24.32;39.23
62849;BME280;48941;49.516;8.286;2023-07-13T08:25:22;100564.31;;;24.42;39.44
62849;BME280;48941;49.516;8.286;2023-07-13T08:27:50;100559.50;;;24.64;39.03
62849;BME280;48941;49.516;8.286;2023-07-13T08:30:18;100562.63;;;24.75;38.48
62849;BME280;48941;49.516;8.286;2023-07-13T08:32:46;100565.09;;;24.90;38.62
62849;BME280;48941;49.516;8.286;2023-07-13T08:35:14;100563.81;;;24.99;37.99
62849;BME280;48941;49.516;8.286;2023-07-13T08:37:42;100554.16;;;25.10;37.81
62849;BME280;48941;49.516;8.286;2023-07-13T08:40:10;100558.53;;;25.24;37.21
62849;BME280;48941;49.516;8.286;2023-07-13T08:42:44;100554.94;;;25.30;36.45
62849;BME280;48941;49.516;8.286;2023-07-13T08:45:17;100564.34;;;25.41;36.38
62849;BME280;48941;49.516;8.286;2023-07-13T08:47:51;100554.06;;;25.43;36.58
62849;BME280;48941;49.516;8.286;2023-07-13T08:50:26;100553.75;;;25.58;36.47
62849;BME280;48941;49.516;8.286;2023-07-13T08:52:56;100562.94;;;25.70;36.38
62849;BME280;48941;49.516;8.286;2023-07-13T08:55:27;100558.25;;;25.77;35.90
62849;BME280;48941;49.516;8.286;2023-07-13T08:58:04;100565.13;;;25.93;36.12
62849;BME280;48941;49.516;8.286;2023-07-13T09:00:39;100558.78;;;25.99;34.98
62849;BME280;48941;49.516;8.286;2023-07-13T09:03:18;100559.25;;;26.21;34.77
62849;BME280;48941;49.516;8.286;2023-07-13T09:05:51;100555.19;;;26.31;35.29
62849;BME280;48941;49.516;8.286;2023-07-13T09:08:42;100555.63;;;26.53;34.32
62849;BME280;48941;49.516;8.286;2023-07-13T09:11:23;100556.59;;;26.65;33.75
62849;BME280;48941;49.516;8.286;2023-07-13T09:14:05;100551.34;;;26.82;34.10
62849;BME280;48941;49.516;8.286;2023-07-13T09:16:34;100552.44;;;26.81;33.31
62849;BME280;48941;49.516;8.286;2023-07-13T09:19:07;100555.94;;;26.88;33.47
62849;BME280;48941;49.516;8.286;2023-07-13T09:21:41;100556.91;;;26.94;33.10
62849;BME280;48941;49.516;8.286;2023-07-13T09:24:28;100555.41;;;26.98;33.57
62849;BME280;48941;49.516;8.286;2023-07-13T09:26:57;100553.00;;;27.08;33.46
62849;BME280;48941;49.516;8.286;2023-07-13T09:29:30;100556.78;;;27.07;33.03
62849;BME280;48941;49.516;8.286;2023-07-13T09:32:03;100554.91;;;27.26;32.88
62849;BME280;48941;49.516;8.286;2023-07-13T09:34:33;100555.13;;;27.25;32.19
62849;BME280;48941;49.516;8.286;2023-07-13T09:37:01;100555.78;;;27.20;32.54
62849;BME280;48941;49.516;8.286;2023-07-13T09:39:35;100551.91;;;27.09;33.00
62849;BME280;48941;49.516;8.286;2023-07-13T09:42:12;100552.69;;;27.16;32.02
62849;BME280;48941;49.516;8.286;2023-07-13T09:44:53;100554.66;;;27.28;31.44
62849;BME280;48941;49.516;8.286;2023-07-13T09:47:22;100560.13;;;27.28;31.26
62849;BME280;48941;49.516;8.286;2023-07-13T09:49:55;100559.38;;;27.39;31.51
62849;BME280;48941;49.516;8.286;2023-07-13T09:52:40;100555.22;;;27.67;30.98
62849;BME280;48941;49.516;8.286;2023-07-13T09:55:24;100560.94;;;27.77;31.18
62849;BME280;48941;49.516;8.286;2023-07-13T09:57:52;100551.69;;;27.78;30.99
62849;BME280;48941;49.516;8.286;2023-07-13T10:00:24;100553.19;;;27.74;30.11
62849;BME280;48941;49.516;8.286;2023-07-13T10:03:00;100555.94;;;27.74;29.64
62849;BME280;48941;49.516;8.286;2023-07-13T10:05:40;100555.25;;;27.78;29.38
62849;BME280;48941;49.516;8.286;2023-07-13T10:08:17;100560.19;;;27.88;29.72
62849;BME280;48941;49.516;8.286;2023-07-13T10:10:46;100553.56;;;27.96;29.69
62849;BME280;48941;49.516;8.286;2023-07-13T10:13:26;100552.38;;;28.04;29.74
62849;BME280;48941;49.516;8.286;2023-07-13T10:15:57;100553.34;;;28.09;29.84
62849;BME280;48941;49.516;8.286;2023-07-13T10:18:28;100557.88;;;28.15;29.38
62849;BME280;48941;49.516;8.286;2023-07-13T10:21:11;100565.47;;;28.13;29.14
62849;BME280;48941;49.516;8.286;2023-07-13T10:24:04;100564.50;;;28.08;29.40
62849;BME280;48941;49.516;8.286;2023-07-13T10:26:42;100558.31;;;28.00;30.03
62849;BME280;48941;49.516;8.286;2023-07-13T10:29:14;100556.97;;;27.91;29.35
62849;BME280;48941;49.516;8.286;2023-07-13T10:31:45;100567.09;;;27.91;29.76
62849;BME280;48941;49.516;8.286;2023-07-13T10:34:14;100560.31;;;27.93;29.41
62849;BME280;48941;49.516;8.286;2023-07-13T10:36:43;100555.38;;;28.14;29.33
62849;BME280;48941;49.516;8.286;2023-07-13T10:39:16;100554.69;;;28.30;29.64
62849;BME280;48941;49.516;8.286;2023-07-13T10:41:48;100553.88;;;28.53;28.69
62849;BME280;48941;49.516;8.286;2023-07-13T10:44:22;100555.81;;;28.53;28.84
62849;BME280;48941;49.516;8.286;2023-07-13T10:46:56;100550.06;;;28.43;29.15
62849;BME280;48941;49.516;8.286;2023-07-13T10:49:29;100558.47;;;28.29;29.73
62849;BME280;48941;49.516;8.286;2023-07-13T10:51:58;100550.75;;;28.26;29.87
62849;BME280;48941;49.516;8.286;2023-07-13T10:54:30;100559.28;;;28.06;29.88
62849;BME280;48941;49.516;8.286;2023-07-13T10:57:17;100562.59;;;27.96;29.78
62849;BME280;48941;49.516;8.286;2023-07-13T10:59:48;100559.19;;;28.13;29.89
62849;BME280;48941;49.516;8.286;2023-07-13T11:02:27;100553.50;;;28.50;30.09
62849;BME280;48941;49.516;8.286;2023-07-13T11:04:56;100559.59;;;28.64;27.66
62849;BME280;48941;49.516;8.286;2023-07-13T11:07:27;100558.50;;;28.41;28.78
62849;BME280;48941;49.516;8.286;2023-07-13T11:09:57;100550.13;;;28.12;29.07
62849;BME280;48941;49.516;8.286;2023-07-13T11:12:49;100543.81;;;28.24;28.82
62849;BME280;48941;49.516;8.286;2023-07-13T11:15:31;100552.31;;;28.22;28.95
62849;BME280;48941;49.516;8.286;2023-07-13T11:18:04;100556.91;;;28.21;28.59
62849;BME280;48941;49.516;8.286;2023-07-13T11:20:40;100546.66;;;28.05;29.46
62849;BME280;48941;49.516;8.286;2023-07-13T11:23:18;100557.78;;;28.22;28.62
62849;BME280;48941;49.516;8.286;2023-07-13T11:25:47;100540.13;;;28.06;28.42
62849;BME280;48941;49.516;8.286;2023-07-13T11:28:22;100549.13;;;27.95;28.83
62849;BME280;48941;49.516;8.286;2023-07-13T11:31:14;100549.59;;;27.92;28.64
62849;BME280;48941;49.516;8.286;2023-07-13T11:33:50;100541.03;;;27.88;29.09
62849;BME280;48941;49.516;8.286;2023-07-13T11:36:20;100546.22;;;27.78;29.77
62849;BME280;48941;49.516;8.286;2023-07-13T11:38:56;100544.97;;;27.74;28.49
62849;BME280;48941;49.516;8.286;2023-07-13T11:41:28;100547.44;;;27.64;28.80
62849;BME280;48941;49.516;8.286;2023-07-13T11:44:05;100550.22;;;27.75;29.11
62849;BME280;48941;49.516;8.286;2023-07-13T11:46:33;100545.91;;;27.68;29.58
62849;BME280;48941;49.516;8.286;2023-07-13T11:49:04;100550.50;;;27.55;29.44
62849;BME280;48941;49.516;8.286;2023-07-13T11:51:34;100549.19;;;27.46;30.07
62849;BME280;48941;49.516;8.286;2023-07-13T11:54:05;100551.91;;;27.46;29.80
62849;BME280;48941;49.516;8.286;2023-07-13T11:56:34;100544.00;;;27.38;30.10
62849;BME280;48941;49.516;8.286;2023-07-13T11:59:06;100547.00;;;27.36;30.65
62849;BME280;48941;49.516;8.286;2023-07-13T12:01:36;100550.78;;;27.35;30.12
62849;BME280;48941;49.516;8.286;2023-07-13T12:04:20;100555.50;;;27.28;30.21
62849;BME280;48941;49.516;8.286;2023-07-13T12:06:55;100549.34;;;27.14;29.20
62849;BME280;48941;49.516;8.286;2023-07-13T12:09:26;100551.38;;;27.19;30.00
62849;BME280;48941;49.516;8.286;2023-07-13T12:11:57;100552.81;;;27.03;30.15
62849;BME280;48941;49.516;8.286;2023-07-13T12:14:27;100550.41;;;26.95;29.89
62849;BME280;48941;49.516;8.286;2023-07-13T12:16:56;100554.66;;;26.91;30.71
62849;BME280;48941;49.516;8.286;2023-07-13T12:19:27;100557.00;;;27.06;30.21
62849;BME280;48941;49.516;8.286;2023-07-13T12:21:57;100557.25;;;27.04;30.56
62849;BME280;48941;49.516;8.286;2023-07-13T12:24:26;100557.53;;;27.14;30.33
62849;BME280;48941;49.516;8.286;2023-07-13T12:26:59;100555.34;;;27.05;30.29
62849;BME280;48941;49.516;8.286;2023-07-13T12:29:28;100550.53;;;27.00;30.42
62849;BME280;48941;49.516;8.286;2023-07-13T12:31:56;100563.75;;;27.03;31.34
62849;BME280;48941;49.516;8.286;2023-07-13T12:34:26;100563.44;;;27.11;30.77
62849;BME280;48941;49.516;8.286;2023-07-13T12:36:56;100560.38;;;27.26;30.79
62849;BME280;48941;49.516;8.286;2023-07-13T12:39:35;100554.59;;;27.34;31.01
62849;BME280;48941;49.516;8.286;2023-07-13T12:42:18;100560.78;;;27.23;30.95
62849;BME280;48941;49.516;8.286;2023-07-13T12:44:48;100563.22;;;27.13;31.11
62849;BME280;48941;49.516;8.286;2023-07-13T12:47:16;100568.91;;;27.11;31.30
62849;BME280;48941;49.516;8.286;2023-07-13T12:49:50;100562.00;;;27.09;31.66
62849;BME280;48941;49.516;8.286;2023-07-13T12:52:21;100569.38;;;27.08;31.78
62849;BME280;48941;49.516;8.286;2023-07-13T12:54:53;100567.97;;;27.24;31.22
62849;BME280;48941;49.516;8.286;2023-07-13T12:57:32;100577.38;;;27.28;30.81
62849;BME280;48941;49.516;8.286;2023-07-13T13:00:00;100570.72;;;27.24;31.53
62849;BME280;48941;49.516;8.286;2023-07-13T13:02:32;100577.75;;;27.32;30.93
62849;BME280;48941;49.516;8.286;2023-07-13T13:05:03;100573.19;;;27.26;30.73
62849;BME280;48941;49.516;8.286;2023-07-13T13:07:32;100574.38;;;27.11;30.32